Time;durP1;ratioP1;P1;durP2;ratioP2;P2;SDS_P1;SDS_P2;PMS_P1;PMS_P2;Temp;Humidity;BMP_temperature;BMP_pressure;BME280_temperature;BME280_humidity;BME280_pressure;Samples;Min_cycle;Max_cycle;Signal;HPM_P1;HPM_P2
2023/08/02 07:01:24;;;;;;;0.10;0.10;;;17.60;99.90;19.90;98950.00;;;;6117128;22;4480998;-70
2023/08/02 07:03:52;;;;;;;0.20;0.20;;;17.60;99.90;20.20;98949.00;;;;6307562;22;20170;-71
2023/08/02 07:06:39;;;;;;;0.20;0.20;;;17.60;99.90;20.00;98937.00;;;;6308532;22;20155;-71
2023/08/02 07:09:32;;;;;;;0.30;0.30;;;17.60;99.90;20.10;98935.00;;;;6298281;22;20252;-71
2023/08/02 07:12:07;;;;;;;0.30;0.30;;;17.70;99.90;20.20;98894.00;;;;6297220;22;20492;-71
2023/08/02 07:14:44;;;;;;;0.20;0.20;;;17.80;99.90;20.40;98936.00;;;;6308025;22;20150;-71
2023/08/02 07:17:31;;;;;;;0.50;0.50;;;17.80;99.90;20.80;98929.00;;;;6282026;22;20181;-72
2023/08/02 07:20:08;;;;;;;0.20;0.20;;;18.00;99.90;20.80;98914.00;;;;6308906;22;20159;-71
2023/08/02 07:22:50;;;;;;;0.20;0.20;;;18.10;99.90;20.90;98912.00;;;;6309186;22;20218;-72
2023/08/02 07:25:36;;;;;;;0.20;0.20;;;18.20;99.90;20.40;98918.00;;;;6307783;22;20192;-71
2023/08/02 07:28:25;;;;;;;0.20;0.20;;;18.20;99.90;21.00;98917.00;;;;6306873;22;20221;-71
2023/08/02 07:30:51;;;;;;;0.20;0.20;;;18.20;99.90;20.50;98914.00;;;;6307268;22;20252;-72
2023/08/02 07:33:26;;;;;;;0.17;0.17;;;18.30;99.90;20.60;98915.00;;;;6282084;22;20588;-71
2023/08/02 07:35:52;;;;;;;0.20;0.20;;;18.30;99.90;20.80;98913.00;;;;6307096;22;20140;-72
2023/08/02 07:38:27;;;;;;;0.20;0.20;;;18.40;99.90;21.30;98904.00;;;;6308793;22;20151;-71
2023/08/02 07:40:59;;;;;;;0.20;0.20;;;18.70;99.90;22.20;98875.00;;;;6281840;22;20156;-71
2023/08/02 07:43:48;;;;;;;0.30;0.30;;;19.00;99.90;21.60;98883.00;;;;6308018;22;20223;-71
2023/08/02 07:46:28;;;;;;;0.40;0.40;;;19.10;99.90;22.00;98877.00;;;;6308445;22;20514;-71
2023/08/02 07:49:14;;;;;;;0.20;0.20;;;19.50;99.90;21.80;98873.00;;;;6307553;22;20144;-71
2023/08/02 07:52:00;;;;;;;0.30;0.30;;;19.60;99.90;22.80;98877.00;;;;6308544;22;20251;-71
2023/08/02 07:54:38;;;;;;;0.30;0.30;;;20.00;99.90;23.10;98863.00;;;;6308866;22;20246;-71
2023/08/02 07:57:12;;;;;;;0.30;0.30;;;20.20;99.90;22.50;98861.00;;;;6307352;22;20223;-71
2023/08/02 07:59:50;;;;;;;0.80;0.80;;;20.00;99.90;22.70;98857.00;;;;6307308;22;20168;-71
2023/08/02 08:02:16;;;;;;;0.30;0.30;;;20.10;99.90;21.80;98866.00;;;;6279786;22;20176;-71
2023/08/02 08:05:00;;;;;;;0.40;0.40;;;19.80;99.90;22.80;98858.00;;;;6255552;22;20152;-71
2023/08/02 08:07:28;;;;;;;0.60;0.60;;;20.00;99.90;23.00;98840.00;;;;6256019;22;20164;-71
2023/08/02 08:10:12;;;;;;;0.38;0.38;;;20.20;99.90;22.80;98857.00;;;;6281465;22;20580;-72
2023/08/02 08:12:41;;;;;;;5.97;5.50;;;20.00;99.90;22.30;98861.00;;;;6281910;22;20140;-72
2023/08/02 08:15:10;;;;;;;0.40;0.40;;;19.90;99.90;22.70;98852.00;;;;6281621;22;20452;-71
2023/08/02 08:17:39;;;;;;;0.40;0.40;;;19.90;99.90;22.80;98803.00;;;;6281690;22;20488;-72
2023/08/02 08:20:17;;;;;;;0.68;0.68;;;19.90;99.90;23.00;98836.00;;;;6281204;22;20141;-71
2023/08/02 08:23:04;;;;;;;0.52;0.52;;;20.10;99.90;23.40;98827.00;;;;6256542;22;20229;-71
2023/08/02 08:25:31;;;;;;;0.82;0.50;;;20.40;99.90;23.00;98829.00;;;;6255725;22;20170;-71
2023/08/02 08:28:05;;;;;;;0.40;0.40;;;20.30;99.90;23.50;98816.00;;;;6308623;22;20140;-72
2023/08/02 08:30:43;;;;;;;0.30;0.30;;;20.40;99.90;22.60;98836.00;;;;6280750;22;20489;-71
2023/08/02 08:33:30;;;;;;;0.40;0.40;;;20.10;99.90;23.20;98812.00;;;;6281292;22;20156;-72
2023/08/02 08:36:20;;;;;;;0.38;0.38;;;20.30;99.90;22.70;98819.00;;;;6255459;22;20164;-71
2023/08/02 08:39:06;;;;;;;0.30;0.30;;;20.10;99.90;24.00;98817.00;;;;6282255;22;20223;-71
2023/08/02 08:42:05;;;;;;;0.45;0.45;;;20.70;99.90;23.70;98815.00;;;;6280575;22;20468;-71
2023/08/02 08:44:37;;;;;;;0.40;0.40;;;20.90;99.90;24.70;98774.00;;;;6281320;22;20168;-71
2023/08/02 08:47:12;;;;;;;0.30;0.30;;;21.50;99.90;24.50;98786.00;;;;6255306;22;20157;-71
2023/08/02 08:49:41;;;;;;;0.40;0.40;;;21.60;99.90;26.10;98770.00;;;;6280680;22;20235;-72
2023/08/02 08:52:14;;;;;;;1.55;0.60;;;22.30;99.90;24.70;98770.00;;;;6281658;22;20167;-71
2023/08/02 08:54:59;;;;;;;2.25;2.15;;;22.10;99.90;23.80;98766.00;;;;6281544;22;20587;-71
2023/08/02 08:57:49;;;;;;;0.70;0.70;;;21.50;99.90;24.00;98761.00;;;;6255548;22;20152;-71
2023/08/02 09:00:20;;;;;;;0.30;0.30;;;21.50;99.90;23.60;98758.00;;;;6263765;22;20172;-71
2023/08/02 09:02:53;;;;;;;0.38;0.38;;;21.40;99.90;23.80;98760.00;;;;6280958;22;20497;-72
2023/08/02 09:05:20;;;;;;;0.38;0.38;;;21.60;99.90;24.80;98747.00;;;;6306679;22;20145;-72
2023/08/02 09:07:51;;;;;;;0.50;0.50;;;22.00;99.90;24.90;98740.00;;;;6280851;22;20152;-72
2023/08/02 09:10:32;;;;;;;0.40;0.40;;;22.20;99.90;25.50;98724.00;;;;6306499;22;20507;-72
2023/08/02 09:13:24;;;;;;;0.55;0.55;;;22.50;99.90;26.20;98746.00;;;;6306452;22;20477;-72
2023/08/02 09:16:15;;;;;;;1.75;1.30;;;23.20;99.90;24.40;98744.00;;;;6306458;22;20144;-72
2023/08/02 09:18:49;;;;;;;0.40;0.40;;;22.70;99.90;26.50;98745.00;;;;6306358;22;20156;-72
2023/08/02 09:21:35;;;;;;;1.35;0.98;;;23.10;99.90;22.40;98745.00;;;;6306443;22;20572;-72
2023/08/02 09:24:06;;;;;;;0.50;0.30;;;21.70;99.90;22.90;98751.00;;;;6280036;22;20259;-72
2023/08/02 09:26:41;;;;;;;0.40;0.40;;;20.80;99.90;22.70;98785.00;;;;6280351;22;20577;-72
2023/08/02 09:29:13;;;;;;;0.30;0.30;;;20.50;99.90;21.60;98785.00;;;;6306341;22;20568;-72
2023/08/02 09:31:42;;;;;;;0.40;0.40;;;20.00;99.90;21.80;98791.00;;;;6306241;22;20160;-72
2023/08/02 09:34:18;;;;;;;0.60;0.60;;;19.80;99.90;21.90;98784.00;;;;6306425;22;20143;-72
2023/08/02 09:36:47;;;;;;;1.48;0.70;;;19.80;99.90;22.50;98788.00;;;;6306036;22;20139;-72
2023/08/02 09:39:25;;;;;;;0.50;0.40;;;20.00;99.90;21.70;98780.00;;;;6280619;22;20160;-72
2023/08/02 09:42:11;;;;;;;1.02;0.90;;;19.90;99.90;22.70;98764.00;;;;6305969;22;20160;-72
2023/08/02 09:44:41;;;;;;;0.60;0.60;;;20.10;99.90;22.90;98781.00;;;;6280821;22;20471;-71
2023/08/02 09:47:12;;;;;;;0.30;0.30;;;20.30;99.90;22.10;98782.00;;;;6305885;22;20139;-72
2023/08/02 09:50:09;;;;;;;0.90;0.60;;;20.10;99.90;22.80;98778.00;;;;6308062;22;20137;-72
2023/08/02 09:53:14;;;;;;;0.40;0.40;;;20.10;99.90;22.10;98799.00;;;;6297418;22;20203;-73
2023/08/02 09:55:51;;;;;;;1.38;1.08;;;20.00;99.90;21.10;98743.00;;;;6280763;22;20148;-72
2023/08/02 09:58:28;;;;;;;2.78;0.65;;;19.80;99.90;21.90;98809.00;;;;6305996;22;20193;-72
2023/08/02 10:01:04;;;;;;;1.75;1.05;;;20.00;99.90;21.60;98794.00;;;;6279899;22;20176;-72
2023/08/02 10:03:38;;;;;;;4.90;1.30;;;20.00;99.90;21.70;98778.00;;;;6305950;22;20168;-72
2023/08/02 10:06:16;;;;;;;5.55;0.98;;;20.10;99.90;21.70;98777.00;;;;6280465;22;20159;-72
2023/08/02 10:08:46;;;;;;;2.13;1.05;;;20.10;99.90;22.80;98760.00;;;;6280075;22;20167;-72
2023/08/02 10:11:29;;;;;;;4.13;1.13;;;20.30;99.90;23.00;98762.00;;;;6306000;22;20597;-72
2023/08/02 10:13:58;;;;;;;6.80;0.90;;;20.60;99.90;22.10;98758.00;;;;6306071;22;20156;-72
2023/08/02 10:16:29;;;;;;;0.88;0.50;;;20.60;99.90;22.60;98770.00;;;;6280264;22;20153;-72
2023/08/02 10:19:01;;;;;;;0.45;0.45;;;20.90;99.90;22.60;98767.00;;;;6306278;22;20205;-73
2023/08/02 10:33:39;;;;;;;1.52;1.05;;;21.40;99.90;23.40;98767.00;;;;5054485;28;20622;-72
2023/08/02 10:36:11;;;;;;;2.38;1.15;;;21.50;99.90;23.30;98753.00;;;;5048297;28;20182;-71
2023/08/02 10:38:49;;;;;;;5.60;1.40;;;21.50;99.90;22.20;98754.00;;;;5040889;28;20221;-71
2023/08/02 10:41:27;;;;;;;3.97;1.35;;;21.00;99.90;22.20;98755.00;;;;5032681;28;20182;-71
2023/08/02 10:44:04;;;;;;;0.38;0.38;;;20.90;99.90;24.20;98757.00;;;;5043928;28;20268;-72
2023/08/02 10:46:40;;;;;;;4.72;1.38;;;21.60;99.90;23.90;98745.00;;;;5041089;28;20266;-71
2023/08/02 10:49:17;;;;;;;2.63;1.20;;;21.90;99.90;24.10;98752.00;;;;5025427;28;20178;-71
2023/08/02 10:52:01;;;;;;;0.22;0.22;;;22.40;99.90;23.80;98741.00;;;;5045519;28;20228;-71
2023/08/02 10:54:35;;;;;;;1.80;1.10;;;22.20;99.90;24.30;98739.00;;;;5029444;28;20280;-71
2023/08/02 10:57:10;;;;;;;0.28;0.25;;;22.50;99.90;24.20;98731.00;;;;5047217;28;20174;-71
2023/08/02 10:59:44;;;;;;;2.92;0.38;;;22.40;99.90;25.20;98778.00;;;;5037077;28;20196;-70
2023/08/02 11:02:18;;;;;;;0.30;0.25;;;22.90;99.90;25.00;98769.00;;;;5031006;28;20243;-71
2023/08/02 11:05:06;;;;;;;1.38;0.65;;;22.80;99.90;24.90;98762.00;;;;5043198;28;20214;-71
2023/08/02 11:07:35;;;;;;;2.88;0.65;;;22.70;99.90;25.40;98763.00;;;;5043394;28;20218;-71
2023/08/02 11:10:05;;;;;;;11.02;0.85;;;23.20;99.90;24.70;98761.00;;;;5035691;28;20266;-70
2023/08/02 11:12:37;;;;;;;3.20;0.40;;;23.00;99.90;24.80;98733.00;;;;5039599;28;20672;-71
2023/08/02 11:15:20;;;;;;;0.90;0.50;;;23.00;99.90;25.60;98791.00;;;;5047333;28;20187;-70
2023/08/02 11:18:07;;;;;;;0.10;0.10;;;23.50;99.90;25.40;98765.00;;;;5035456;28;20262;-71
2023/08/02 11:20:42;;;;;;;0.55;0.43;;;23.30;99.90;24.90;98784.00;;;;5044841;28;20236;-71
2023/08/02 11:24:09;;;;;;;3.45;1.48;;;23.20;99.90;25.80;98780.00;;;;5048748;28;20188;-71
2023/08/02 11:26:56;;;;;;;0.10;0.10;;;23.30;99.90;26.00;98791.00;;;;5015054;28;20197;-71
2023/08/02 11:29:29;;;;;;;0.55;0.32;;;23.60;99.90;24.90;98757.00;;;;5041520;28;20182;-71
2023/08/02 11:32:06;;;;;;;2.45;0.70;;;23.50;99.90;25.20;98786.00;;;;5040293;28;20218;-70
2023/08/02 11:34:50;;;;;;;0.68;0.25;;;23.30;99.90;24.50;98762.00;;;;5042839;28;20198;-71
2023/08/02 11:37:18;;;;;;;0.60;0.55;;;22.90;99.90;24.80;98759.00;;;;5037483;28;20178;-71
2023/08/02 11:40:34;;;;;;;0.10;0.10;;;22.80;99.90;25.80;98785.00;;;;5044449;28;20193;-70
2023/08/02 11:43:14;;;;;;;1.00;0.38;;;23.10;99.90;24.60;98760.00;;;;5038947;28;20191;-71
2023/08/02 11:45:40;;;;;;;0.90;0.35;;;22.60;99.90;25.20;98770.00;;;;5026305;28;20232;-70
2023/08/02 11:48:27;;;;;;;0.32;0.32;;;22.60;99.90;24.90;98739.00;;;;5016119;28;20282;-70
2023/08/02 11:51:15;;;;;;;0.22;0.22;;;22.70;99.90;25.00;98780.00;;;;5028720;28;20270;-71
2023/08/02 11:53:55;;;;;;;0.95;0.40;;;22.60;99.90;23.40;98770.00;;;;5003170;28;20191;-70
2023/08/02 11:56:27;;;;;;;0.45;0.43;;;22.30;99.90;24.20;98772.00;;;;5016126;28;20226;-71
2023/08/02 11:59:01;;;;;;;2.08;0.40;;;22.30;99.90;24.30;98766.00;;;;5032247;28;20186;-71
2023/08/02 12:01:33;;;;;;;0.45;0.45;;;22.30;99.90;23.80;98783.00;;;;5012639;28;20195;-70
2023/08/02 12:04:06;;;;;;;1.33;0.95;;;22.00;99.90;23.90;98782.00;;;;5039024;28;20267;-70
2023/08/02 12:06:53;;;;;;;1.48;0.73;;;22.10;99.90;24.00;98784.00;;;;5031090;28;20184;-70
2023/08/02 12:09:39;;;;;;;0.22;0.22;;;22.20;99.90;23.90;98772.00;;;;5018945;28;20180;-70
2023/08/02 12:12:29;;;;;;;4.32;0.40;;;22.20;99.90;22.90;98763.00;;;;5032874;28;20210;-70
2023/08/02 12:15:44;;;;;;;0.43;0.43;;;21.80;99.90;24.00;98783.00;;;;5018933;28;20283;-70
2023/08/02 12:18:22;;;;;;;0.50;0.40;;;21.70;99.90;24.30;98765.00;;;;4997051;28;20202;-70
2023/08/02 12:21:44;;;;;;;0.85;0.50;;;22.00;99.90;24.20;98762.00;;;;5032410;28;20203;-71
2023/08/02 12:24:32;;;;;;;0.47;0.30;;;22.20;99.90;24.50;98774.00;;;;5026687;28;20556;-70
2023/08/02 12:27:20;;;;;;;0.20;0.20;;;22.40;99.90;24.40;98797.00;;;;5017646;28;20548;-70
2023/08/02 12:30:25;;;;;;;;;;;;;;;;;;;;;
2023/08/02 12:32:52;;;;;;;0.30;0.30;;;23.00;99.90;24.40;98824.00;;;;4978790;28;20222;-70
2023/08/02 12:35:42;;;;;;;0.10;0.10;;;22.70;99.90;24.90;98819.00;;;;5016536;28;20196;-70
2023/08/02 12:38:08;;;;;;;0.10;0.10;;;22.70;99.90;24.20;98807.00;;;;5025251;28;20267;-70
2023/08/02 12:40:36;;;;;;;0.80;0.43;;;22.50;99.90;24.70;98815.00;;;;5021862;28;20274;-70
2023/08/02 12:43:02;;;;;;;0.10;0.10;;;22.70;99.90;24.90;98831.00;;;;5003726;28;20241;-71
2023/08/02 12:45:37;;;;;;;0.10;0.10;;;22.90;99.90;25.50;98800.00;;;;5020599;28;20199;-71
2023/08/02 12:48:23;;;;;;;0.20;0.20;;;22.90;99.90;24.50;98811.00;;;;5020781;28;20179;-70
2023/08/02 12:50:55;;;;;;;0.32;0.32;;;22.70;99.90;24.20;98791.00;;;;5018617;28;20676;-70
2023/08/02 12:53:27;;;;;;;0.10;0.10;;;22.60;99.90;25.90;98805.00;;;;5023862;28;20632;-70
2023/08/02 12:55:59;;;;;;;0.25;0.25;;;23.00;99.90;26.30;98832.00;;;;5027431;28;20217;-70
2023/08/02 12:58:30;;;;;;;0.20;0.17;;;23.40;99.90;25.00;98833.00;;;;5025197;28;20262;-70
2023/08/02 13:01:16;;;;;;;0.10;0.10;;;23.10;99.90;26.20;98813.00;;;;5019784;28;20578;-71
2023/08/02 13:03:56;;;;;;;0.10;0.10;;;23.30;99.90;24.90;98854.00;;;;5021079;28;20265;-70
2023/08/02 13:06:50;;;;;;;0.28;0.10;;;23.00;99.90;24.60;98846.00;;;;5021513;28;20187;-70
2023/08/02 13:09:38;;;;;;;0.10;0.10;;;22.60;99.90;26.00;98871.00;;;;5010781;28;20584;-71
2023/08/02 13:12:25;;;;;;;0.82;0.55;;;22.90;99.90;24.60;98871.00;;;;5007954;28;20202;-71
2023/08/02 13:15:15;;;;;;;0.10;0.10;;;22.90;99.90;25.10;98864.00;;;;5021199;28;20573;-70
2023/08/02 13:17:49;;;;;;;3.88;1.58;;;22.70;99.90;24.70;98907.00;;;;5021123;28;20190;-71
2023/08/02 13:20:33;;;;;;;0.52;0.43;;;22.90;99.90;24.40;98832.00;;;;5022510;28;20203;-70
2023/08/02 13:23:05;;;;;;;1.08;0.32;;;22.50;99.90;24.80;98875.00;;;;5033035;28;20179;-71
2023/08/02 13:25:34;;;;;;;0.30;0.30;;;22.70;99.90;24.80;98881.00;;;;5021322;28;20244;-71
2023/08/02 13:28:16;;;;;;;0.30;0.28;;;22.90;99.90;24.60;98880.00;;;;5021029;28;20288;-71
2023/08/02 13:30:45;;;;;;;0.30;0.25;;;22.70;99.90;24.90;98871.00;;;;5028581;28;20249;-70
2023/08/02 13:33:17;;;;;;;0.30;0.30;;;22.50;99.90;24.70;98879.00;;;;5048761;28;20237;-70
2023/08/02 13:35:46;;;;;;;2.47;1.10;;;22.60;99.90;24.90;98904.00;;;;5013994;28;20278;-72
2023/08/02 13:38:23;;;;;;;0.30;0.25;;;22.80;99.90;24.90;98890.00;;;;5014649;28;20187;-70
2023/08/02 13:40:50;;;;;;;3.63;0.40;;;22.70;99.90;24.30;98900.00;;;;5039029;28;20206;-71
2023/08/02 13:43:39;;;;;;;2.10;0.65;;;22.40;99.90;24.80;98905.00;;;;5022838;28;20195;-71
2023/08/02 13:46:10;;;;;;;0.43;0.22;;;22.60;99.90;24.60;98852.00;;;;5031848;28;20217;-70
2023/08/02 13:48:49;;;;;;;6.55;1.65;;;22.40;99.90;25.00;98911.00;;;;5018626;28;20536;-71
2023/08/02 13:51:37;;;;;;;3.42;0.85;;;22.60;99.90;24.50;98904.00;;;;5042924;28;20190;-70
2023/08/02 13:54:04;;;;;;;0.10;0.10;;;22.40;99.90;24.20;98895.00;;;;5012338;28;20203;-70
2023/08/02 13:56:41;;;;;;;1.05;0.38;;;22.10;99.90;23.60;98869.00;;;;5019527;28;20191;-70
2023/08/02 13:59:28;;;;;;;1.52;0.90;;;21.80;99.90;22.10;98800.00;;;;5030199;28;20186;-70
2023/08/02 14:01:56;;;;;;;1.63;0.57;;;21.00;99.90;21.80;98752.00;;;;5024384;28;20191;-70
2023/08/02 14:04:28;;;;;;;1.70;0.38;;;20.50;99.90;22.30;98822.00;;;;5028531;28;20721;-71
2023/08/02 14:07:18;;;;;;;0.25;0.17;;;20.40;99.90;22.70;98835.00;;;;5016837;28;20199;-71
2023/08/02 14:09:48;;;;;;;0.20;0.20;;;20.70;99.90;22.80;98827.00;;;;5022110;28;20183;-70
2023/08/02 14:12:15;;;;;;;0.32;0.20;;;20.80;99.90;22.50;98847.00;;;;5040819;28;20223;-71
2023/08/02 14:14:43;;;;;;;0.20;0.13;;;20.90;99.90;22.80;98844.00;;;;5032007;28;20195;-71
2023/08/02 14:17:17;;;;;;;0.32;0.32;;;20.90;99.90;23.90;98851.00;;;;5028313;28;20763;-69
2023/08/02 14:20:07;;;;;;;0.10;0.10;;;21.20;99.90;23.70;98858.00;;;;5023894;28;20187;-70
2023/08/02 14:22:42;;;;;;;0.10;0.10;;;21.40;99.90;24.70;98856.00;;;;5006564;28;20734;-71
2023/08/02 14:25:16;;;;;;;0.20;0.20;;;21.70;99.90;24.80;98907.00;;;;5021300;28;20195;-71
2023/08/02 14:27:53;;;;;;;1.77;0.20;;;22.10;99.90;23.80;98877.00;;;;5025290;28;20182;-69
2023/08/02 14:30:19;;;;;;;1.23;0.57;;;21.70;99.90;23.40;98849.00;;;;5026495;28;20290;-70
2023/08/02 14:33:05;;;;;;;2.72;0.60;;;21.40;99.90;23.30;98877.00;;;;5028018;28;20234;-71
2023/08/02 14:35:38;;;;;;;1.58;0.85;;;21.20;99.90;23.10;98871.00;;;;5015123;28;20195;-70
2023/08/02 14:38:43;;;;;;;1.45;0.70;;;21.10;99.90;22.10;98860.00;;;;5026792;28;20645;-70
2023/08/02 14:41:17;;;;;;;1.30;0.43;;;20.80;99.90;22.50;98858.00;;;;5026378;28;20183;-71
2023/08/02 14:43:54;;;;;;;0.38;0.35;;;20.70;99.90;22.10;98830.00;;;;5027256;28;20208;-70
2023/08/02 14:46:29;;;;;;;0.20;0.20;;;20.70;99.90;23.30;98839.00;;;;5029261;28;20194;-70
2023/08/02 14:49:17;;;;;;;2.85;0.68;;;20.90;99.90;22.70;98846.00;;;;5019649;28;20641;-70
2023/08/02 14:51:51;;;;;;;4.15;0.73;;;20.90;99.90;23.00;98870.00;;;;5029217;28;20203;-70
2023/08/02 14:54:20;;;;;;;4.65;0.30;;;21.00;99.90;22.90;98866.00;;;;5024917;28;20211;-71
2023/08/02 14:56:55;;;;;;;1.85;0.88;;;21.00;99.90;23.10;98856.00;;;;5020627;28;20199;-71
2023/08/02 14:59:24;;;;;;;1.35;0.40;;;21.00;99.90;23.10;98877.00;;;;5021795;28;20212;-71
2023/08/02 15:01:53;;;;;;;0.10;0.10;;;21.00;99.90;23.10;98817.00;;;;5024326;28;20205;-71
2023/08/02 15:04:27;;;;;;;2.17;1.35;;;20.90;99.90;24.00;98851.00;;;;5007215;28;20232;-71
2023/08/02 15:06:58;;;;;;;0.10;0.10;;;21.20;99.90;24.80;98856.00;;;;5026683;28;20174;-71
2023/08/02 15:09:33;;;;;;;2.42;0.50;;;21.50;99.90;24.20;98876.00;;;;5016414;28;20255;-70
2023/08/02 15:12:10;;;;;;;0.20;0.20;;;21.60;99.90;24.00;98868.00;;;;5020211;28;20217;-71
2023/08/02 15:14:41;;;;;;;0.10;0.10;;;21.30;99.90;24.40;98871.00;;;;5031098;28;20182;-71
2023/08/02 15:17:27;;;;;;;2.30;0.63;;;21.60;99.90;24.20;98877.00;;;;5020392;28;20187;-71
2023/08/02 15:19:56;;;;;;;0.20;0.20;;;21.70;99.90;23.10;98871.00;;;;5021503;28;20190;-71
2023/08/02 15:22:23;;;;;;;0.10;0.10;;;21.30;99.90;25.30;98873.00;;;;5024897;28;20265;-70
2023/08/02 15:24:58;;;;;;;0.10;0.10;;;21.80;99.90;25.10;98901.00;;;;5005251;28;20199;-71
2023/08/02 15:27:29;;;;;;;0.73;0.73;;;22.00;99.90;22.80;98878.00;;;;5013942;28;20190;-70
2023/08/02 15:30:00;;;;;;;3.55;1.15;;;21.10;99.90;23.40;98824.00;;;;5019242;28;20180;-71
2023/08/02 15:32:32;;;;;;;0.22;0.22;;;21.20;99.90;23.10;98856.00;;;;5026006;28;20209;-70
2023/08/02 15:35:13;;;;;;;0.15;0.15;;;21.10;99.90;24.20;98839.00;;;;5028252;28;20608;-70
2023/08/02 15:37:41;;;;;;;3.25;0.55;;;21.10;99.90;23.30;98830.00;;;;5032592;28;20194;-71
2023/08/02 15:40:13;;;;;;;2.13;0.60;;;21.00;99.90;22.60;98826.00;;;;5027577;28;20229;-70
2023/08/02 15:42:51;;;;;;;0.10;0.10;;;20.80;99.90;23.00;98797.00;;;;5025523;28;20607;-70
2023/08/02 15:45:22;;;;;;;0.25;0.20;;;20.80;99.90;24.60;98829.00;;;;5030244;28;20515;-71
2023/08/02 15:47:57;;;;;;;0.30;0.30;;;21.30;99.90;24.70;98829.00;;;;5008550;28;20724;-70
2023/08/02 15:50:31;;;;;;;0.10;0.10;;;21.60;99.90;24.20;98854.00;;;;5028637;28;20193;-70
2023/08/02 15:53:02;;;;;;;0.30;0.30;;;21.70;99.90;25.20;98840.00;;;;5047630;28;20665;-71
2023/08/02 15:55:51;;;;;;;0.20;0.20;;;21.80;99.90;24.90;98858.00;;;;5033865;28;20199;-70
2023/08/02 15:58:34;;;;;;;0.10;0.10;;;22.00;99.90;25.10;98852.00;;;;5019840;28;20274;-71
2023/08/02 16:01:05;;;;;;;1.38;0.32;;;22.10;99.90;24.00;98834.00;;;;5027229;28;20210;-71
2023/08/02 16:03:43;;;;;;;0.20;0.20;;;21.70;99.90;24.90;98856.00;;;;5030700;28;20187;-71
2023/08/02 16:06:10;;;;;;;0.75;0.40;;;21.90;99.90;24.30;98834.00;;;;5021778;28;20183;-71
2023/08/02 16:08:44;;;;;;;0.95;0.45;;;21.70;99.90;24.90;98846.00;;;;5027688;28;20185;-71
2023/08/02 16:11:19;;;;;;;0.10;0.10;;;21.90;99.90;24.70;98830.00;;;;5023750;28;20188;-71
2023/08/02 16:13:46;;;;;;;0.10;0.10;;;21.90;99.90;25.30;98843.00;;;;5027296;28;20684;-71
2023/08/02 16:16:18;;;;;;;0.30;0.30;;;21.90;99.90;24.30;98823.00;;;;5023962;28;20606;-71
2023/08/02 16:18:47;;;;;;;0.20;0.20;;;21.80;99.90;23.30;98803.00;;;;5029956;28;20278;-71
2023/08/02 16:21:36;;;;;;;0.90;0.57;;;21.40;99.90;23.40;98795.00;;;;5033757;28;20862;-71
2023/08/02 16:24:10;;;;;;;1.98;0.30;;;21.30;99.90;23.00;98782.00;;;;5025294;28;20202;-71
2023/08/02 16:26:38;;;;;;;0.10;0.10;;;21.10;99.90;23.60;98807.00;;;;5027033;28;20187;-71
2023/08/02 16:29:25;;;;;;;0.28;0.28;;;21.10;99.90;23.30;98801.00;;;;5025214;28;20633;-71
2023/08/02 16:32:06;;;;;;;0.40;0.20;;;21.10;99.90;22.80;98767.00;;;;5017482;28;20704;-70
2023/08/02 16:34:34;;;;;;;6.32;3.92;;;20.70;99.90;23.40;98814.00;;;;5027975;28;20204;-71
2023/08/02 16:37:15;;;;;;;0.10;0.10;;;20.80;99.90;23.90;98787.00;;;;5016942;28;20646;-71
2023/08/02 16:39:48;;;;;;;0.10;0.10;;;21.00;99.90;24.10;98802.00;;;;5028404;28;20266;-70
2023/08/02 16:42:16;;;;;;;0.30;0.30;;;21.10;99.90;22.60;98778.00;;;;5015449;28;20227;-71
2023/08/02 16:44:46;;;;;;;0.20;0.20;;;20.70;99.90;22.70;98797.00;;;;5028676;28;20187;-71
2023/08/02 16:47:41;;;;;;;0.45;0.45;;;20.50;99.90;22.60;98801.00;;;;5021390;28;20207;-71
2023/08/02 16:50:13;;;;;;;0.20;0.20;;;20.40;99.90;22.90;98794.00;;;;5021424;28;20257;-70
2023/08/02 16:53:00;;;;;;;0.25;0.25;;;20.30;99.90;22.50;98792.00;;;;5019304;28;20207;-70
2023/08/02 16:55:29;;;;;;;0.10;0.10;;;20.40;99.90;22.00;98772.00;;;;5028138;28;20183;-70
2023/08/02 16:58:15;;;;;;;0.10;0.10;;;20.00;99.90;22.70;98768.00;;;;5021316;28;20191;-70
2023/08/02 17:00:41;;;;;;;0.20;0.20;;;19.90;99.90;22.50;98730.00;;;;4985931;28;20188;-70
2023/08/02 17:03:19;;;;;;;0.20;0.20;;;19.90;99.90;21.30;98760.00;;;;5017893;28;20256;-70
2023/08/02 17:05:45;;;;;;;0.10;0.10;;;19.50;99.90;21.60;98764.00;;;;5013289;28;20278;-70
2023/08/02 17:08:31;;;;;;;0.20;0.20;;;19.20;99.90;22.40;98761.00;;;;5023500;28;20266;-70
2023/08/02 17:11:17;;;;;;;0.20;0.20;;;19.40;99.90;21.60;98743.00;;;;5025964;28;20201;-70
2023/08/02 17:14:04;;;;;;;0.20;0.20;;;19.30;99.90;21.60;98744.00;;;;5011575;28;20195;-70
2023/08/02 17:19:28;;;;;;;0.30;0.30;;;18.80;99.90;20.90;98732.00;;;;5015828;28;20194;-70
2023/08/02 17:22:17;;;;;;;0.30;0.30;;;18.70;99.90;20.70;98742.00;;;;5015896;28;20183;-70
2023/08/02 17:24:45;;;;;;;0.20;0.20;;;18.50;99.90;20.70;98714.00;;;;5020727;28;20256;-70
2023/08/02 17:27:25;;;;;;;0.40;0.40;;;18.50;99.90;20.70;98740.00;;;;5025807;28;20194;-70
2023/08/02 17:29:53;;;;;;;0.28;0.28;;;18.50;99.90;20.60;98743.00;;;;5026387;28;20563;-70
2023/08/02 17:32:25;;;;;;;0.40;0.40;;;18.40;99.90;20.40;98763.00;;;;5014796;28;20260;-70
2023/08/02 17:34:55;;;;;;;0.40;0.40;;;18.40;99.90;21.00;98744.00;;;;5032932;28;20429;-70
2023/08/02 17:37:53;;;;;;;1.05;1.05;;;18.50;99.90;20.50;98749.00;;;;5029859;28;20245;-70
2023/08/02 17:40:19;;;;;;;0.60;0.60;;;18.50;99.90;20.30;98740.00;;;;5042650;28;20195;-70
2023/08/02 17:42:48;;;;;;;0.28;0.28;;;18.30;99.90;20.00;98739.00;;;;5037876;28;20649;-71
2023/08/02 17:45:41;;;;;;;;;;;;;;;;;;;;;
2023/08/02 17:48:11;;;;;;;0.30;0.30;;;18.10;99.90;20.30;98735.00;;;;5024311;28;20193;-70
2023/08/02 17:50:40;;;;;;;0.20;0.20;;;18.10;99.90;20.40;98733.00;;;;5027623;28;20186;-68
2023/08/02 17:53:18;;;;;;;0.30;0.30;;;18.20;99.90;20.20;98732.00;;;;5028354;28;20293;-68
2023/08/02 17:55:53;;;;;;;0.20;0.20;;;18.20;99.90;20.40;98742.00;;;;5026270;28;20182;-68
2023/08/02 17:58:27;;;;;;;1.10;0.40;;;18.20;99.90;20.40;98743.00;;;;5021341;28;20198;-68
2023/08/02 18:01:14;;;;;;;2.37;1.30;;;18.20;99.90;20.30;98736.00;;;;5043715;28;20201;-69
2023/08/02 18:03:45;;;;;;;0.20;0.20;;;18.20;99.90;20.30;98724.00;;;;5028477;28;20186;-68
2023/08/02 18:06:13;;;;;;;0.57;0.57;;;18.20;99.90;19.90;98731.00;;;;5047866;28;20186;-68
2023/08/02 18:08:52;;;;;;;0.47;0.47;;;18.10;99.90;20.00;98721.00;;;;5019838;28;20612;-68
2023/08/02 18:11:35;;;;;;;0.40;0.40;;;18.00;99.90;19.80;98713.00;;;;5020476;28;20197;-68
2023/08/02 18:14:08;;;;;;;0.30;0.30;;;18.00;99.90;20.10;98714.00;;;;5046167;28;20216;-68
2023/08/02 18:16:43;;;;;;;0.30;0.30;;;17.90;99.90;20.00;98681.00;;;;5026391;28;20239;-68
2023/08/02 18:19:15;;;;;;;0.85;0.60;;;17.90;99.90;20.20;98722.00;;;;5021905;28;20182;-68
2023/08/02 18:21:50;;;;;;;0.20;0.20;;;17.90;99.90;20.20;98720.00;;;;5025068;28;20240;-68
2023/08/02 18:24:28;;;;;;;0.50;0.50;;;17.90;99.90;20.20;98710.00;;;;5026899;28;20205;-68
2023/08/02 18:26:59;;;;;;;0.30;0.30;;;17.90;99.90;20.00;98678.00;;;;5026774;28;20260;-68
2023/08/02 18:29:38;;;;;;;0.70;0.50;;;18.00;99.90;20.20;98692.00;;;;5021585;28;20193;-68
2023/08/02 18:32:05;;;;;;;0.73;0.73;;;18.00;99.90;19.90;98703.00;;;;5024807;28;20204;-68
2023/08/02 18:35:00;;;;;;;0.37;0.37;;;18.00;99.90;20.50;98685.00;;;;5025753;28;20218;-68
2023/08/02 18:37:48;;;;;;;1.17;1.07;;;18.10;99.90;20.10;98688.00;;;;5021153;28;20321;-68
2023/08/02 18:40:31;;;;;;;0.38;0.32;;;18.00;99.90;20.30;98678.00;;;;5038514;28;20200;-69
2023/08/02 18:43:22;;;;;;;0.30;0.30;;;18.10;99.90;20.20;98688.00;;;;5030177;28;20190;-69
2023/08/02 18:46:03;;;;;;;0.20;0.20;;;18.10;99.90;20.10;98692.00;;;;5029758;28;20198;-69
2023/08/02 18:48:40;;;;;;;0.40;0.40;;;18.10;99.90;20.00;98654.00;;;;5029691;28;20576;-69
2023/08/02 18:51:19;;;;;;;0.50;0.40;;;18.10;99.90;19.70;98697.00;;;;5029688;28;20184;-69
2023/08/02 18:54:05;;;;;;;0.20;0.20;;;17.90;99.90;20.00;98698.00;;;;5032085;28;20276;-69
2023/08/02 18:56:54;;;;;;;0.60;0.60;;;17.90;99.90;19.60;98729.00;;;;5017131;28;20244;-69
2023/08/02 18:59:25;;;;;;;0.30;0.30;;;17.80;99.90;19.90;98709.00;;;;5019973;28;20236;-70